sensor_id;sensor_type;location;lat;lon;timestamp;pressure;altitude;pressure_sealevel;temperature;humidity
59055;BME280;44845;51.444;7.460;2022-12-29T00:00:48;98481.91;;;8.95;84.63
59055;BME280;44845;51.444;7.460;2022-12-29T00:03:13;98471.47;;;8.95;84.49
59055;BME280;44845;51.444;7.460;2022-12-29T00:05:39;98475.75;;;8.99;84.11
59055;BME280;44845;51.444;7.460;2022-12-29T00:08:04;98466.97;;;9.01;84.19
59055;BME280;44845;51.444;7.460;2022-12-29T00:10:29;98470.91;;;8.82;84.51
59055;BME280;44845;51.444;7.460;2022-12-29T00:12:55;98459.31;;;8.94;84.44
59055;BME280;44845;51.444;7.460;2022-12-29T00:15:38;98465.31;;;8.97;84.72
59055;BME280;44845;51.444;7.460;2022-12-29T00:18:04;98462.66;;;8.99;84.44
59055;BME280;44845;51.444;7.460;2022-12-29T00:20:33;98460.88;;;9.01;84.29
59055;BME280;44845;51.444;7.460;2022-12-29T00:23:17;98455.56;;;9.04;84.24
59055;BME280;44845;51.444;7.460;2022-12-29T00:26:03;98448.56;;;9.06;84.41
59055;BME280;44845;51.444;7.460;2022-12-29T00:28:47;98444.19;;;9.07;84.51
59055;BME280;44845;51.444;7.460;2022-12-29T00:31:31;98452.22;;;8.99;84.94
59055;BME280;44845;51.444;7.460;2022-12-29T00:34:15;98445.31;;;8.95;85.10
59055;BME280;44845;51.444;7.460;2022-12-29T00:36:59;98436.34;;;9.05;85.09
59055;BME280;44845;51.444;7.460;2022-12-29T00:39:25;98437.00;;;9.15;84.94
59055;BME280;44845;51.444;7.460;2022-12-29T00:42:09;98444.94;;;9.10;85.10
59055;BME280;44845;51.444;7.460;2022-12-29T00:44:53;98450.06;;;9.17;85.22
59055;BME280;44845;51.444;7.460;2022-12-29T00:47:18;98456.06;;;9.20;85.31
59055;BME280;44845;51.444;7.460;2022-12-29T00:49:43;98437.63;;;9.25;85.05
59055;BME280;44845;51.444;7.460;2022-12-29T00:52:12;98430.53;;;9.30;85.09
59055;BME280;44845;51.444;7.460;2022-12-29T00:54:39;98430.75;;;9.21;85.42
59055;BME280;44845;51.444;7.460;2022-12-29T00:57:06;98435.91;;;9.24;85.06
59055;BME280;44845;51.444;7.460;2022-12-29T00:59:32;98425.53;;;9.21;85.50
59055;BME280;44845;51.444;7.460;2022-12-29T01:01:57;98419.25;;;9.27;85.30
59055;BME280;44845;51.444;7.460;2022-12-29T01:04:25;98421.22;;;9.18;85.69
59055;BME280;44845;51.444;7.460;2022-12-29T01:06:51;98420.22;;;9.24;85.50
59055;BME280;44845;51.444;7.460;2022-12-29T01:09:17;98416.88;;;9.19;86.02
59055;BME280;44845;51.444;7.460;2022-12-29T01:12:03;98414.00;;;9.28;85.75
59055;BME280;44845;51.444;7.460;2022-12-29T01:14:28;98416.69;;;9.25;85.92
59055;BME280;44845;51.444;7.460;2022-12-29T01:16:55;98430.59;;;9.27;85.97
59055;BME280;44845;51.444;7.460;2022-12-29T01:19:21;98416.63;;;9.28;85.68
59055;BME280;44845;51.444;7.460;2022-12-29T01:21:47;98416.56;;;9.31;85.65
59055;BME280;44845;51.444;7.460;2022-12-29T01:24:14;98413.94;;;9.31;85.53
59055;BME280;44845;51.444;7.460;2022-12-29T01:26:40;98409.53;;;9.33;85.77
59055;BME280;44845;51.444;7.460;2022-12-29T01:29:05;98413.25;;;9.23;86.50
59055;BME280;44845;51.444;7.460;2022-12-29T01:31:31;98409.59;;;9.30;86.18
59055;BME280;44845;51.444;7.460;2022-12-29T01:33:56;98409.53;;;9.32;85.96
59055;BME280;44845;51.444;7.460;2022-12-29T01:36:21;98404.22;;;9.35;85.46
59055;BME280;44845;51.444;7.460;2022-12-29T01:38:47;98411.38;;;9.28;85.89
59055;BME280;44845;51.444;7.460;2022-12-29T01:41:14;98394.72;;;9.32;85.65
59055;BME280;44845;51.444;7.460;2022-12-29T01:46:42;98401.53;;;9.38;85.41
59055;BME280;44845;51.444;7.460;2022-12-29T01:49:18;98416.69;;;9.25;85.75
59055;BME280;44845;51.444;7.460;2022-12-29T01:52:05;98400.84;;;9.31;85.72
59055;BME280;44845;51.444;7.460;2022-12-29T01:54:35;98399.19;;;9.29;85.58
59055;BME280;44845;51.444;7.460;2022-12-29T01:57:05;98400.00;;;9.29;86.03
59055;BME280;44845;51.444;7.460;2022-12-29T01:59:35;98400.94;;;9.28;85.98
59055;BME280;44845;51.444;7.460;2022-12-29T02:02:03;98394.06;;;9.24;86.27
59055;BME280;44845;51.444;7.460;2022-12-29T02:04:31;98399.31;;;9.22;86.48
59055;BME280;44845;51.444;7.460;2022-12-29T02:07:05;98392.22;;;9.28;86.06
59055;BME280;44845;51.444;7.460;2022-12-29T02:09:32;98393.81;;;9.33;85.86
59055;BME280;44845;51.444;7.460;2022-12-29T02:11:58;98391.84;;;9.42;85.32
59055;BME280;44845;51.444;7.460;2022-12-29T02:14:24;98381.38;;;9.42;85.23
59055;BME280;44845;51.444;7.460;2022-12-29T02:17:07;98381.38;;;9.42;85.18
59055;BME280;44845;51.444;7.460;2022-12-29T02:34:13;98347.53;;;9.35;84.75
59055;BME280;44845;51.444;7.460;2022-12-29T02:42:44;98345.47;;;9.47;84.69
59055;BME280;44845;51.444;7.460;2022-12-29T02:47:51;98355.38;;;9.35;84.44
59055;BME280;44845;51.444;7.460;2022-12-29T02:50:36;98358.75;;;9.41;84.13
59055;BME280;44845;51.444;7.460;2022-12-29T02:53:15;98347.41;;;9.40;84.24
59055;BME280;44845;51.444;7.460;2022-12-29T02:55:49;98344.66;;;9.45;84.14
59055;BME280;44845;51.444;7.460;2022-12-29T02:58:20;98341.06;;;9.49;83.69
59055;BME280;44845;51.444;7.460;2022-12-29T03:08:28;98344.59;;;9.48;82.98
59055;BME280;44845;51.444;7.460;2022-12-29T03:11:16;98343.59;;;9.52;82.44
59055;BME280;44845;51.444;7.460;2022-12-29T03:14:26;98348.88;;;9.51;82.41
59055;BME280;44845;51.444;7.460;2022-12-29T03:17:48;98349.50;;;9.61;82.26
59055;BME280;44845;51.444;7.460;2022-12-29T03:20:24;98344.34;;;9.57;82.25
59055;BME280;44845;51.444;7.460;2022-12-29T03:22:53;98340.31;;;9.44;82.22
59055;BME280;44845;51.444;7.460;2022-12-29T03:25:28;98343.53;;;9.54;82.17
59055;BME280;44845;51.444;7.460;2022-12-29T03:28:00;98333.84;;;9.57;81.78
59055;BME280;44845;51.444;7.460;2022-12-29T03:30:28;98339.09;;;9.57;82.22
59055;BME280;44845;51.444;7.460;2022-12-29T03:32:58;98348.53;;;9.63;81.83
59055;BME280;44845;51.444;7.460;2022-12-29T03:35:28;98338.91;;;9.64;82.45
59055;BME280;44845;51.444;7.460;2022-12-29T03:38:23;98341.53;;;9.64;82.47
59055;BME280;44845;51.444;7.460;2022-12-29T03:40:53;98345.94;;;9.63;82.65
59055;BME280;44845;51.444;7.460;2022-12-29T03:43:21;98334.66;;;9.60;82.94
59055;BME280;44845;51.444;7.460;2022-12-29T03:45:46;98340.72;;;9.62;82.73
59055;BME280;44845;51.444;7.460;2022-12-29T03:48:12;98328.63;;;9.57;82.38
59055;BME280;44845;51.444;7.460;2022-12-29T03:50:37;98339.09;;;9.57;82.76
59055;BME280;44845;51.444;7.460;2022-12-29T03:53:03;98335.66;;;9.55;83.21
59055;BME280;44845;51.444;7.460;2022-12-29T03:55:28;98335.56;;;9.58;83.01
59055;BME280;44845;51.444;7.460;2022-12-29T03:57:53;98326.81;;;9.60;83.33
59055;BME280;44845;51.444;7.460;2022-12-29T04:00:19;98332.09;;;9.58;83.24
59055;BME280;44845;51.444;7.460;2022-12-29T04:02:44;98319.19;;;9.52;83.80
59055;BME280;44845;51.444;7.460;2022-12-29T04:05:09;98315.94;;;9.43;84.00
59055;BME280;44845;51.444;7.460;2022-12-29T04:07:35;98316.97;;;9.38;84.27
59055;BME280;44845;51.444;7.460;2022-12-29T04:10:00;98328.22;;;9.40;84.37
59055;BME280;44845;51.444;7.460;2022-12-29T04:12:25;98326.28;;;9.46;84.13
59055;BME280;44845;51.444;7.460;2022-12-29T04:14:51;98327.03;;;9.52;84.16
59055;BME280;44845;51.444;7.460;2022-12-29T04:17:16;98313.94;;;9.52;83.98
59055;BME280;44845;51.444;7.460;2022-12-29T04:19:41;98326.06;;;9.56;83.68
59055;BME280;44845;51.444;7.460;2022-12-29T04:22:07;98302.72;;;9.48;84.37
59055;BME280;44845;51.444;7.460;2022-12-29T04:24:32;98297.75;;;9.39;84.24
59055;BME280;44845;51.444;7.460;2022-12-29T04:26:57;98296.63;;;9.48;84.32
59055;BME280;44845;51.444;7.460;2022-12-29T04:29:23;98291.19;;;9.54;84.06
59055;BME280;44845;51.444;7.460;2022-12-29T04:31:48;98295.63;;;9.52;84.09
59055;BME280;44845;51.444;7.460;2022-12-29T04:34:13;98266.16;;;9.45;84.18
59055;BME280;44845;51.444;7.460;2022-12-29T04:36:39;98261.81;;;9.44;83.90
59055;BME280;44845;51.444;7.460;2022-12-29T04:39:05;98261.97;;;9.39;84.37
59055;BME280;44845;51.444;7.460;2022-12-29T04:41:31;98253.72;;;9.53;83.96
59055;BME280;44845;51.444;7.460;2022-12-29T04:43:56;98257.44;;;9.46;83.88
59055;BME280;44845;51.444;7.460;2022-12-29T04:46:21;98267.16;;;9.41;84.31
59055;BME280;44845;51.444;7.460;2022-12-29T04:48:47;98260.84;;;9.48;83.78
59055;BME280;44845;51.444;7.460;2022-12-29T04:51:12;98274.16;;;9.40;83.99
59055;BME280;44845;51.444;7.460;2022-12-29T04:53:38;98276.56;;;9.46;83.68
59055;BME280;44845;51.444;7.460;2022-12-29T04:56:03;98280.97;;;9.46;83.86
59055;BME280;44845;51.444;7.460;2022-12-29T04:58:29;98287.75;;;9.53;83.36
59055;BME280;44845;51.444;7.460;2022-12-29T05:00:54;98287.88;;;9.49;83.34
59055;BME280;44845;51.444;7.460;2022-12-29T05:03:20;98290.38;;;9.53;83.45
59055;BME280;44845;51.444;7.460;2022-12-29T05:05:45;98287.78;;;9.52;83.36
59055;BME280;44845;51.444;7.460;2022-12-29T05:08:10;98289.44;;;9.54;83.00
59055;BME280;44845;51.444;7.460;2022-12-29T05:10:36;98276.19;;;9.61;82.98
59055;BME280;44845;51.444;7.460;2022-12-29T05:13:01;98304.16;;;9.58;82.58
59055;BME280;44845;51.444;7.460;2022-12-29T05:15:26;98287.47;;;9.63;82.81
59055;BME280;44845;51.444;7.460;2022-12-29T05:17:52;98291.91;;;9.61;82.46
59055;BME280;44845;51.444;7.460;2022-12-29T05:20:18;98284.28;;;9.51;82.62
59055;BME280;44845;51.444;7.460;2022-12-29T05:22:43;98294.81;;;9.50;82.15
59055;BME280;44845;51.444;7.460;2022-12-29T05:25:09;98294.66;;;9.56;82.21
59055;BME280;44845;51.444;7.460;2022-12-29T05:27:34;98291.03;;;9.60;82.23
59055;BME280;44845;51.444;7.460;2022-12-29T05:29:59;98298.09;;;9.58;81.97
59055;BME280;44845;51.444;7.460;2022-12-29T05:32:25;98307.50;;;9.64;82.09
59055;BME280;44845;51.444;7.460;2022-12-29T05:34:50;98293.75;;;9.57;81.71
59055;BME280;44845;51.444;7.460;2022-12-29T05:37:16;98291.91;;;9.61;81.43
59055;BME280;44845;51.444;7.460;2022-12-29T05:39:41;98295.94;;;9.71;81.32
59055;BME280;44845;51.444;7.460;2022-12-29T05:42:06;98296.94;;;9.67;80.85
59055;BME280;44845;51.444;7.460;2022-12-29T05:44:32;98299.69;;;9.62;81.05
59055;BME280;44845;51.444;7.460;2022-12-29T05:46:57;98313.69;;;9.61;80.97
59055;BME280;44845;51.444;7.460;2022-12-29T05:49:22;98318.91;;;9.61;80.85
59055;BME280;44845;51.444;7.460;2022-12-29T05:51:48;98317.03;;;9.66;80.71
59055;BME280;44845;51.444;7.460;2022-12-29T05:54:13;98318.84;;;9.64;80.47
59055;BME280;44845;51.444;7.460;2022-12-29T05:56:38;98331.03;;;9.65;80.30
59055;BME280;44845;51.444;7.460;2022-12-29T05:59:04;98309.88;;;9.73;80.35
59055;BME280;44845;51.444;7.460;2022-12-29T06:01:29;98302.81;;;9.75;80.23
59055;BME280;44845;51.444;7.460;2022-12-29T06:03:54;98292.97;;;9.84;79.52
59055;BME280;44845;51.444;7.460;2022-12-29T06:06:20;98284.66;;;9.69;78.52
59055;BME280;44845;51.444;7.460;2022-12-29T06:08:45;98295.34;;;9.61;79.06
59055;BME280;44845;51.444;7.460;2022-12-29T06:11:11;98305.72;;;9.66;78.35
59055;BME280;44845;51.444;7.460;2022-12-29T06:13:36;98302.03;;;9.73;78.46
59055;BME280;44845;51.444;7.460;2022-12-29T06:16:01;98299.44;;;9.72;78.39
59055;BME280;44845;51.444;7.460;2022-12-29T06:18:27;98306.47;;;9.69;78.12
59055;BME280;44845;51.444;7.460;2022-12-29T06:20:53;98308.34;;;9.66;77.70
59055;BME280;44845;51.444;7.460;2022-12-29T06:23:18;98316.88;;;9.73;78.60
59055;BME280;44845;51.444;7.460;2022-12-29T06:25:44;98314.19;;;9.74;78.83
59055;BME280;44845;51.444;7.460;2022-12-29T06:28:09;98324.59;;;9.76;78.35
59055;BME280;44845;51.444;7.460;2022-12-29T06:30:35;98314.03;;;9.80;77.78
59055;BME280;44845;51.444;7.460;2022-12-29T06:33:01;98307.00;;;9.81;78.04
59055;BME280;44845;51.444;7.460;2022-12-29T06:35:27;98321.16;;;9.75;77.91
59055;BME280;44845;51.444;7.460;2022-12-29T06:37:52;98332.44;;;9.77;77.57
59055;BME280;44845;51.444;7.460;2022-12-29T06:40:17;98328.09;;;9.76;78.11
59055;BME280;44845;51.444;7.460;2022-12-29T06:42:43;98331.63;;;9.75;77.43
59055;BME280;44845;51.444;7.460;2022-12-29T06:45:08;98338.56;;;9.76;77.86
59055;BME280;44845;51.444;7.460;2022-12-29T06:47:35;98340.38;;;9.74;77.63
59055;BME280;44845;51.444;7.460;2022-12-29T06:50:00;98335.78;;;9.83;76.98
59055;BME280;44845;51.444;7.460;2022-12-29T06:52:26;98373.31;;;9.82;77.56
59055;BME280;44845;51.444;7.460;2022-12-29T06:54:51;98373.59;;;9.72;77.62
59055;BME280;44845;51.444;7.460;2022-12-29T06:57:17;98380.44;;;9.76;77.10
59055;BME280;44845;51.444;7.460;2022-12-29T06:59:42;98376.03;;;9.78;76.82
59055;BME280;44845;51.444;7.460;2022-12-29T07:02:10;98394.53;;;9.72;77.34
59055;BME280;44845;51.444;7.460;2022-12-29T07:04:35;98379.50;;;9.79;77.01
59055;BME280;44845;51.444;7.460;2022-12-29T07:07:01;98392.38;;;9.87;76.24
59055;BME280;44845;51.444;7.460;2022-12-29T07:09:26;98384.44;;;9.90;76.19
59055;BME280;44845;51.444;7.460;2022-12-29T07:11:51;98387.06;;;9.90;76.21
59055;BME280;44845;51.444;7.460;2022-12-29T07:14:17;98380.09;;;9.89;76.15
59055;BME280;44845;51.444;7.460;2022-12-29T07:16:42;98394.13;;;9.88;75.91
59055;BME280;44845;51.444;7.460;2022-12-29T07:19:07;98385.47;;;9.84;76.64
59055;BME280;44845;51.444;7.460;2022-12-29T07:21:33;98386.34;;;9.85;76.78
59055;BME280;44845;51.444;7.460;2022-12-29T07:23:58;98383.53;;;9.91;75.82
59055;BME280;44845;51.444;7.460;2022-12-29T07:26:23;98404.75;;;9.82;75.79
59055;BME280;44845;51.444;7.460;2022-12-29T07:28:49;98395.22;;;9.79;75.38
59055;BME280;44845;51.444;7.460;2022-12-29T07:31:19;98401.31;;;9.79;75.44
59055;BME280;44845;51.444;7.460;2022-12-29T07:33:46;98394.41;;;9.77;74.84
59055;BME280;44845;51.444;7.460;2022-12-29T07:36:12;98385.66;;;9.78;75.54
59055;BME280;44845;51.444;7.460;2022-12-29T07:38:39;98408.28;;;9.80;74.77
59055;BME280;44845;51.444;7.460;2022-12-29T07:41:04;98417.88;;;9.80;75.53
59055;BME280;44845;51.444;7.460;2022-12-29T07:43:29;98413.59;;;9.77;75.39
59055;BME280;44845;51.444;7.460;2022-12-29T07:45:55;98412.81;;;9.74;75.91
59055;BME280;44845;51.444;7.460;2022-12-29T07:48:20;98414.53;;;9.75;76.23
59055;BME280;44845;51.444;7.460;2022-12-29T07:50:46;98416.25;;;9.76;75.47
59055;BME280;44845;51.444;7.460;2022-12-29T07:53:11;98421.38;;;9.80;75.82
59055;BME280;44845;51.444;7.460;2022-12-29T07:55:36;98429.63;;;9.65;75.77
59055;BME280;44845;51.444;7.460;2022-12-29T07:58:02;98441.22;;;9.56;75.93
59055;BME280;44845;51.444;7.460;2022-12-29T08:00:27;98450.56;;;9.65;75.59
59055;BME280;44845;51.444;7.460;2022-12-29T08:02:53;98453.84;;;9.73;75.84
59055;BME280;44845;51.444;7.460;2022-12-29T08:05:19;98449.38;;;9.77;75.66
59055;BME280;44845;51.444;7.460;2022-12-29T08:07:45;98443.78;;;9.57;76.16
59055;BME280;44845;51.444;7.460;2022-12-29T08:10:11;98458.44;;;9.65;75.74
59055;BME280;44845;51.444;7.460;2022-12-29T08:12:38;98453.31;;;9.60;74.96
59055;BME280;44845;51.444;7.460;2022-12-29T08:15:04;98462.91;;;9.60;74.60
59055;BME280;44845;51.444;7.460;2022-12-29T08:17:30;98459.94;;;9.74;74.54
59055;BME280;44845;51.444;7.460;2022-12-29T08:19:55;98459.09;;;9.73;73.91
59055;BME280;44845;51.444;7.460;2022-12-29T08:22:21;98465.16;;;9.74;73.45
59055;BME280;44845;51.444;7.460;2022-12-29T08:24:46;98471.19;;;9.77;74.59
59055;BME280;44845;51.444;7.460;2022-12-29T08:27:11;98459.16;;;9.70;74.36
59055;BME280;44845;51.444;7.460;2022-12-29T08:29:37;98452.88;;;9.77;73.40
59055;BME280;44845;51.444;7.460;2022-12-29T08:32:02;98459.00;;;9.76;73.13
59055;BME280;44845;51.444;7.460;2022-12-29T08:34:28;98462.28;;;9.85;73.58
59055;BME280;44845;51.444;7.460;2022-12-29T08:36:53;98462.22;;;9.86;72.80
59055;BME280;44845;51.444;7.460;2022-12-29T08:39:18;98466.66;;;9.84;72.10
59055;BME280;44845;51.444;7.460;2022-12-29T08:41:44;98465.34;;;9.67;71.49
59055;BME280;44845;51.444;7.460;2022-12-29T08:44:09;98462.34;;;9.82;72.63
59055;BME280;44845;51.444;7.460;2022-12-29T08:46:34;98477.38;;;9.75;72.16
59055;BME280;44845;51.444;7.460;2022-12-29T08:49:00;98467.59;;;9.82;72.12
59055;BME280;44845;51.444;7.460;2022-12-29T08:51:25;98472.81;;;9.82;72.72
59055;BME280;44845;51.444;7.460;2022-12-29T08:53:51;98476.19;;;9.87;73.19
59055;BME280;44845;51.444;7.460;2022-12-29T08:56:16;98473.56;;;9.87;72.99
59055;BME280;44845;51.444;7.460;2022-12-29T08:58:42;98471.81;;;9.87;73.18
59055;BME280;44845;51.444;7.460;2022-12-29T09:01:09;98467.19;;;9.96;70.79
59055;BME280;44845;51.444;7.460;2022-12-29T09:03:34;98470.88;;;9.90;72.45
59055;BME280;44845;51.444;7.460;2022-12-29T09:06:00;98469.06;;;9.92;72.72
59055;BME280;44845;51.444;7.460;2022-12-29T09:08:25;98486.97;;;9.74;73.26
59055;BME280;44845;51.444;7.460;2022-12-29T09:10:50;98498.13;;;9.83;75.32
59055;BME280;44845;51.444;7.460;2022-12-29T09:13:17;98517.13;;;9.54;76.65
59055;BME280;44845;51.444;7.460;2022-12-29T09:15:43;98521.31;;;9.63;77.07
59055;BME280;44845;51.444;7.460;2022-12-29T09:18:09;98513.41;;;9.65;77.40
59055;BME280;44845;51.444;7.460;2022-12-29T09:20:35;98517.50;;;9.75;77.38
59055;BME280;44845;51.444;7.460;2022-12-29T09:23:00;98526.31;;;9.71;77.29
59055;BME280;44845;51.444;7.460;2022-12-29T09:25:26;98525.94;;;9.52;77.06
59055;BME280;44845;51.444;7.460;2022-12-29T09:27:52;98535.50;;;9.53;77.63
59055;BME280;44845;51.444;7.460;2022-12-29T09:30:19;98532.84;;;9.54;77.65
59055;BME280;44845;51.444;7.460;2022-12-29T09:32:45;98541.81;;;9.44;77.73
59055;BME280;44845;51.444;7.460;2022-12-29T09:35:10;98536.69;;;9.41;77.30
59055;BME280;44845;51.444;7.460;2022-12-29T09:37:36;98543.59;;;9.42;77.94
59055;BME280;44845;51.444;7.460;2022-12-29T09:40:01;98543.59;;;9.42;77.08
59055;BME280;44845;51.444;7.460;2022-12-29T09:42:36;98547.22;;;9.38;76.96
59055;BME280;44845;51.444;7.460;2022-12-29T09:45:06;98549.75;;;9.41;76.83
59055;BME280;44845;51.444;7.460;2022-12-29T09:47:35;98548.72;;;9.48;76.38
59055;BME280;44845;51.444;7.460;2022-12-29T09:50:22;98550.34;;;9.52;76.15
59055;BME280;44845;51.444;7.460;2022-12-29T09:52:54;98545.19;;;9.49;76.59
59055;BME280;44845;51.444;7.460;2022-12-29T09:55:25;98533.00;;;9.48;76.66
59055;BME280;44845;51.444;7.460;2022-12-29T09:57:59;98541.91;;;9.41;76.26
59055;BME280;44845;51.444;7.460;2022-12-29T10:00:39;98538.06;;;9.54;76.86
59055;BME280;44845;51.444;7.460;2022-12-29T10:03:20;98547.66;;;9.55;76.43
59055;BME280;44845;51.444;7.460;2022-12-29T10:08:44;98535.28;;;9.62;74.92
59055;BME280;44845;51.444;7.460;2022-12-29T10:11:48;98540.69;;;9.56;75.50
59055;BME280;44845;51.444;7.460;2022-12-29T10:14:36;98538.13;;;9.53;74.39
59055;BME280;44845;51.444;7.460;2022-12-29T10:17:19;98532.84;;;9.54;74.34
59055;BME280;44845;51.444;7.460;2022-12-29T10:20:02;98541.50;;;9.56;74.06
59055;BME280;44845;51.444;7.460;2022-12-29T10:25:22;98533.72;;;9.55;72.99
59055;BME280;44845;51.444;7.460;2022-12-29T10:27:50;98537.78;;;9.67;73.12
59055;BME280;44845;51.444;7.460;2022-12-29T10:30:18;98532.66;;;9.62;72.46
59055;BME280;44845;51.444;7.460;2022-12-29T10:32:54;98535.84;;;9.75;71.17
59055;BME280;44845;51.444;7.460;2022-12-29T10:35:23;98532.59;;;9.64;71.22
59055;BME280;44845;51.444;7.460;2022-12-29T10:37:59;98535.84;;;9.75;72.00
59055;BME280;44845;51.444;7.460;2022-12-29T10:43:43;98526.81;;;9.86;71.43
59055;BME280;44845;51.444;7.460;2022-12-29T10:46:13;98539.84;;;9.89;71.39
59055;BME280;44845;51.444;7.460;2022-12-29T10:48:40;98537.16;;;9.90;70.07
59055;BME280;44845;51.444;7.460;2022-12-29T10:51:07;98553.94;;;9.83;70.43
59055;BME280;44845;51.444;7.460;2022-12-29T10:53:40;98529.47;;;9.84;69.12
59055;BME280;44845;51.444;7.460;2022-12-29T10:56:29;98544.25;;;9.87;69.08
59055;BME280;44845;51.444;7.460;2022-12-29T10:59:03;98545.75;;;9.96;69.59
59055;BME280;44845;51.444;7.460;2022-12-29T11:01:37;98541.31;;;9.99;69.28
59055;BME280;44845;51.444;7.460;2022-12-29T11:04:26;98543.06;;;9.99;68.42
59055;BME280;44845;51.444;7.460;2022-12-29T11:06:59;98543.06;;;9.99;67.80
59055;BME280;44845;51.444;7.460;2022-12-29T11:09:31;98550.06;;;9.98;67.45
59055;BME280;44845;51.444;7.460;2022-12-29T11:11:57;98550.88;;;10.00;69.24
59055;BME280;44845;51.444;7.460;2022-12-29T11:14:28;98554.97;;;10.12;69.19
59055;BME280;44845;51.444;7.460;2022-12-29T11:17:02;98555.03;;;10.09;68.13
59055;BME280;44845;51.444;7.460;2022-12-29T11:19:31;98554.00;;;10.15;69.42
59055;BME280;44845;51.444;7.460;2022-12-29T11:22:26;98549.09;;;10.02;67.54
59055;BME280;44845;51.444;7.460;2022-12-29T11:24:54;98568.50;;;9.95;68.85
59055;BME280;44845;51.444;7.460;2022-12-29T11:27:22;98568.16;;;10.08;68.60
59055;BME280;44845;51.444;7.460;2022-12-29T11:29:50;98563.25;;;9.95;67.54
59055;BME280;44845;51.444;7.460;2022-12-29T11:32:27;98567.44;;;10.02;68.54
59055;BME280;44845;51.444;7.460;2022-12-29T11:34:57;98576.38;;;9.95;68.72
59055;BME280;44845;51.444;7.460;2022-12-29T11:37:36;98576.94;;;10.07;69.51
59055;BME280;44845;51.444;7.460;2022-12-29T11:40:19;98584.22;;;9.95;68.81
59055;BME280;44845;51.444;7.460;2022-12-29T11:42:51;98591.31;;;9.90;68.07
59055;BME280;44845;51.444;7.460;2022-12-29T11:45:23;98584.22;;;9.95;68.44
59055;BME280;44845;51.444;7.460;2022-12-29T11:47:52;98592.97;;;9.94;68.03
59055;BME280;44845;51.444;7.460;2022-12-29T11:50:23;98598.13;;;9.97;68.63
59055;BME280;44845;51.444;7.460;2022-12-29T11:52:57;98603.44;;;9.94;68.81
59055;BME280;44845;51.444;7.460;2022-12-29T11:55:25;98601.81;;;9.90;68.46
59055;BME280;44845;51.444;7.460;2022-12-29T11:57:52;98601.13;;;9.82;68.90
59055;BME280;44845;51.444;7.460;2022-12-29T12:00:21;98620.00;;;9.95;68.61
59055;BME280;44845;51.444;7.460;2022-12-29T12:03:03;98612.59;;;9.76;68.52
59055;BME280;44845;51.444;7.460;2022-12-29T12:05:43;98612.69;;;9.73;67.64
59055;BME280;44845;51.444;7.460;2022-12-29T12:11:16;98607.03;;;9.90;68.37
59055;BME280;44845;51.444;7.460;2022-12-29T12:14:02;98610.41;;;9.95;67.57
59055;BME280;44845;51.444;7.460;2022-12-29T12:16:40;98630.25;;;10.04;68.24
59055;BME280;44845;51.444;7.460;2022-12-29T12:19:38;98619.81;;;10.02;68.32
59055;BME280;44845;51.444;7.460;2022-12-29T12:22:30;98627.50;;;10.09;67.80
59055;BME280;44845;51.444;7.460;2022-12-29T12:25:03;98632.69;;;10.12;68.60
59055;BME280;44845;51.444;7.460;2022-12-29T12:30:13;98635.38;;;10.09;67.43
59055;BME280;44845;51.444;7.460;2022-12-29T12:35:12;98643.53;;;9.96;66.91
59055;BME280;44845;51.444;7.460;2022-12-29T12:37:51;98650.00;;;9.83;67.27
59055;BME280;44845;51.444;7.460;2022-12-29T12:40:34;98645.38;;;9.93;67.11
59055;BME280;44845;51.444;7.460;2022-12-29T12:46:05;98636.72;;;9.89;67.24
59055;BME280;44845;51.444;7.460;2022-12-29T12:51:54;98641.97;;;9.89;67.36
59055;BME280;44845;51.444;7.460;2022-12-29T12:59:56;98654.72;;;10.03;68.12
59055;BME280;44845;51.444;7.460;2022-12-29T13:05:14;98666.19;;;9.99;67.93
59055;BME280;44845;51.444;7.460;2022-12-29T13:10:54;98660.97;;;9.97;67.83
59055;BME280;44845;51.444;7.460;2022-12-29T13:16:40;98675.25;;;9.84;66.82
59055;BME280;44845;51.444;7.460;2022-12-29T13:21:57;98662.06;;;9.88;67.92
59055;BME280;44845;51.444;7.460;2022-12-29T13:24:38;98666.34;;;9.91;67.41
59055;BME280;44845;51.444;7.460;2022-12-29T13:30:20;98672.94;;;10.08;67.39
59055;BME280;44845;51.444;7.460;2022-12-29T13:32:53;98676.53;;;10.03;67.58
59055;BME280;44845;51.444;7.460;2022-12-29T13:35:34;98661.63;;;10.06;67.95
59055;BME280;44845;51.444;7.460;2022-12-29T13:38:09;98667.28;;;9.90;67.77
59055;BME280;44845;51.444;7.460;2022-12-29T13:40:40;98673.09;;;10.01;68.39
59055;BME280;44845;51.444;7.460;2022-12-29T13:43:06;98683.75;;;9.94;67.87
59055;BME280;44845;51.444;7.460;2022-12-29T13:45:34;98671.81;;;9.82;68.01
59055;BME280;44845;51.444;7.460;2022-12-29T13:50:38;98682.28;;;9.82;67.25
59055;BME280;44845;51.444;7.460;2022-12-29T13:53:22;98667.56;;;9.76;67.46
59055;BME280;44845;51.444;7.460;2022-12-29T13:55:58;98688.16;;;9.91;67.74
59055;BME280;44845;51.444;7.460;2022-12-29T13:58:36;98691.66;;;9.92;68.81
59055;BME280;44845;51.444;7.460;2022-12-29T14:03:59;98697.03;;;9.86;67.30
59055;BME280;44845;51.444;7.460;2022-12-29T14:06:30;98694.56;;;9.79;68.00
59055;BME280;44845;51.444;7.460;2022-12-29T14:11:24;98700.38;;;9.93;68.41
59055;BME280;44845;51.444;7.460;2022-12-29T14:13:53;98693.34;;;9.95;67.17
59055;BME280;44845;51.444;7.460;2022-12-29T14:16:26;98698.72;;;9.88;67.39
59055;BME280;44845;51.444;7.460;2022-12-29T14:18:52;98702.25;;;9.87;68.44
59055;BME280;44845;51.444;7.460;2022-12-29T14:21:21;98701.22;;;9.93;67.74
59055;BME280;44845;51.444;7.460;2022-12-29T14:23:50;98704.09;;;9.82;67.78
59055;BME280;44845;51.444;7.460;2022-12-29T14:26:18;98701.53;;;9.80;67.69
59055;BME280;44845;51.444;7.460;2022-12-29T14:31:49;98695.50;;;9.77;66.84
59055;BME280;44845;51.444;7.460;2022-12-29T14:39:39;98709.19;;;9.88;67.09
59055;BME280;44845;51.444;7.460;2022-12-29T14:47:51;98719.75;;;9.85;66.18
59055;BME280;44845;51.444;7.460;2022-12-29T14:50:41;98720.41;;;9.95;66.80
59055;BME280;44845;51.444;7.460;2022-12-29T14:53:41;98720.75;;;9.79;65.56
59055;BME280;44845;51.444;7.460;2022-12-29T14:56:09;98724.63;;;9.63;65.82
59055;BME280;44845;51.444;7.460;2022-12-29T14:58:47;98731.44;;;9.70;67.12
59055;BME280;44845;51.444;7.460;2022-12-29T15:01:23;98716.75;;;9.63;66.12
59055;BME280;44845;51.444;7.460;2022-12-29T15:03:53;98722.00;;;9.63;66.41